sensor_id;sensor_type;location;lat;lon;timestamp;P1;durP1;ratioP1;P2;durP2;ratioP2
13897;SDS011;7019;50.766;4.474;2023-02-16T00:01:47;97.57;;;52.37;;
13897;SDS011;7019;50.766;4.474;2023-02-16T00:04:14;93.40;;;49.33;;
13897;SDS011;7019;50.766;4.474;2023-02-16T00:06:46;89.03;;;49.03;;
13897;SDS011;7019;50.766;4.474;2023-02-16T00:09:13;85.83;;;47.90;;
13897;SDS011;7019;50.766;4.474;2023-02-16T00:11:41;80.30;;;47.47;;
13897;SDS011;7019;50.766;4.474;2023-02-16T00:14:26;90.87;;;49.37;;
13897;SDS011;7019;50.766;4.474;2023-02-16T00:16:54;82.63;;;48.10;;
13897;SDS011;7019;50.766;4.474;2023-02-16T00:19:24;81.83;;;46.67;;
13897;SDS011;7019;50.766;4.474;2023-02-16T00:21:55;81.53;;;46.70;;
13897;SDS011;7019;50.766;4.474;2023-02-16T00:24:24;80.07;;;46.27;;
13897;SDS011;7019;50.766;4.474;2023-02-16T00:26:52;89.43;;;48.70;;
13897;SDS011;7019;50.766;4.474;2023-02-16T00:29:22;85.97;;;47.10;;
13897;SDS011;7019;50.766;4.474;2023-02-16T00:31:52;86.87;;;47.07;;
13897;SDS011;7019;50.766;4.474;2023-02-16T00:34:24;82.23;;;46.23;;
13897;SDS011;7019;50.766;4.474;2023-02-16T00:36:59;91.63;;;48.77;;
13897;SDS011;7019;50.766;4.474;2023-02-16T00:39:28;81.97;;;46.87;;
13897;SDS011;7019;50.766;4.474;2023-02-16T00:41:56;82.47;;;46.57;;
13897;SDS011;7019;50.766;4.474;2023-02-16T00:44:30;93.50;;;49.10;;
13897;SDS011;7019;50.766;4.474;2023-02-16T00:47:00;89.30;;;47.90;;
13897;SDS011;7019;50.766;4.474;2023-02-16T00:49:29;85.37;;;47.90;;
13897;SDS011;7019;50.766;4.474;2023-02-16T00:51:56;82.90;;;47.87;;
13897;SDS011;7019;50.766;4.474;2023-02-16T00:54:25;86.20;;;46.00;;
13897;SDS011;7019;50.766;4.474;2023-02-16T00:56:52;93.07;;;47.47;;
13897;SDS011;7019;50.766;4.474;2023-02-16T00:59:19;91.83;;;46.23;;
13897;SDS011;7019;50.766;4.474;2023-02-16T01:01:47;82.07;;;46.27;;
13897;SDS011;7019;50.766;4.474;2023-02-16T01:04:17;89.23;;;46.47;;
13897;SDS011;7019;50.766;4.474;2023-02-16T01:06:46;98.20;;;52.70;;
13897;SDS011;7019;50.766;4.474;2023-02-16T01:09:32;89.23;;;49.93;;
13897;SDS011;7019;50.766;4.474;2023-02-16T01:12:31;87.30;;;45.97;;
13897;SDS011;7019;50.766;4.474;2023-02-16T01:14:58;88.17;;;47.17;;
13897;SDS011;7019;50.766;4.474;2023-02-16T01:17:25;84.73;;;47.10;;
13897;SDS011;7019;50.766;4.474;2023-02-16T01:19:52;80.00;;;44.80;;
13897;SDS011;7019;50.766;4.474;2023-02-16T01:22:19;84.20;;;46.67;;
13897;SDS011;7019;50.766;4.474;2023-02-16T01:24:48;90.00;;;48.67;;
13897;SDS011;7019;50.766;4.474;2023-02-16T01:27:15;86.27;;;45.60;;
13897;SDS011;7019;50.766;4.474;2023-02-16T01:29:42;89.07;;;48.90;;
13897;SDS011;7019;50.766;4.474;2023-02-16T01:32:10;92.27;;;50.43;;
13897;SDS011;7019;50.766;4.474;2023-02-16T01:34:37;96.70;;;49.07;;
13897;SDS011;7019;50.766;4.474;2023-02-16T01:37:05;86.13;;;48.07;;
13897;SDS011;7019;50.766;4.474;2023-02-16T01:39:37;87.97;;;47.37;;
13897;SDS011;7019;50.766;4.474;2023-02-16T01:42:11;86.37;;;49.43;;
13897;SDS011;7019;50.766;4.474;2023-02-16T01:44:45;102.07;;;51.50;;
13897;SDS011;7019;50.766;4.474;2023-02-16T01:47:20;98.73;;;50.53;;
13897;SDS011;7019;50.766;4.474;2023-02-16T01:49:57;96.37;;;50.10;;
13897;SDS011;7019;50.766;4.474;2023-02-16T01:52:25;101.27;;;52.20;;
13897;SDS011;7019;50.766;4.474;2023-02-16T01:54:58;99.47;;;49.63;;
13897;SDS011;7019;50.766;4.474;2023-02-16T01:57:36;101.53;;;51.60;;
13897;SDS011;7019;50.766;4.474;2023-02-16T02:00:10;112.30;;;52.97;;
13897;SDS011;7019;50.766;4.474;2023-02-16T02:02:43;102.90;;;52.37;;
13897;SDS011;7019;50.766;4.474;2023-02-16T02:05:23;114.77;;;57.07;;
13897;SDS011;7019;50.766;4.474;2023-02-16T02:08:02;107.70;;;51.47;;
13897;SDS011;7019;50.766;4.474;2023-02-16T02:10:38;105.77;;;54.17;;
13897;SDS011;7019;50.766;4.474;2023-02-16T02:13:16;102.27;;;53.13;;
13897;SDS011;7019;50.766;4.474;2023-02-16T02:15:47;101.10;;;50.70;;
13897;SDS011;7019;50.766;4.474;2023-02-16T02:18:14;107.17;;;55.20;;
13897;SDS011;7019;50.766;4.474;2023-02-16T02:20:49;116.60;;;54.40;;
13897;SDS011;7019;50.766;4.474;2023-02-16T02:23:46;115.03;;;54.17;;
13897;SDS011;7019;50.766;4.474;2023-02-16T02:29:45;106.30;;;52.90;;
13897;SDS011;7019;50.766;4.474;2023-02-16T02:32:31;106.20;;;54.40;;
13897;SDS011;7019;50.766;4.474;2023-02-16T02:35:13;117.60;;;57.50;;
13897;SDS011;7019;50.766;4.474;2023-02-16T02:37:53;110.20;;;55.80;;
13897;SDS011;7019;50.766;4.474;2023-02-16T02:40:28;103.07;;;53.77;;
13897;SDS011;7019;50.766;4.474;2023-02-16T02:43:06;103.17;;;53.37;;
13897;SDS011;7019;50.766;4.474;2023-02-16T02:45:41;99.83;;;52.10;;
13897;SDS011;7019;50.766;4.474;2023-02-16T02:48:12;97.77;;;53.47;;
13897;SDS011;7019;50.766;4.474;2023-02-16T02:53:48;95.97;;;53.00;;
13897;SDS011;7019;50.766;4.474;2023-02-16T02:56:38;96.73;;;52.30;;
13897;SDS011;7019;50.766;4.474;2023-02-16T02:59:24;94.93;;;49.60;;
13897;SDS011;7019;50.766;4.474;2023-02-16T03:02:14;82.30;;;45.83;;
13897;SDS011;7019;50.766;4.474;2023-02-16T03:04:43;88.80;;;48.63;;
13897;SDS011;7019;50.766;4.474;2023-02-16T03:07:13;81.70;;;48.03;;
13897;SDS011;7019;50.766;4.474;2023-02-16T03:09:41;81.70;;;45.50;;
13897;SDS011;7019;50.766;4.474;2023-02-16T03:12:09;88.07;;;48.67;;
13897;SDS011;7019;50.766;4.474;2023-02-16T03:14:56;83.87;;;47.77;;
13897;SDS011;7019;50.766;4.474;2023-02-16T03:17:28;77.50;;;47.20;;
13897;SDS011;7019;50.766;4.474;2023-02-16T03:20:17;83.10;;;46.27;;
13897;SDS011;7019;50.766;4.474;2023-02-16T03:23:02;78.30;;;45.23;;
13897;SDS011;7019;50.766;4.474;2023-02-16T03:25:50;71.37;;;42.77;;
13897;SDS011;7019;50.766;4.474;2023-02-16T03:28:36;78.53;;;42.70;;
13897;SDS011;7019;50.766;4.474;2023-02-16T03:31:24;75.97;;;42.60;;
13897;SDS011;7019;50.766;4.474;2023-02-16T03:33:56;74.90;;;43.87;;
13897;SDS011;7019;50.766;4.474;2023-02-16T03:36:24;71.43;;;41.70;;
13897;SDS011;7019;50.766;4.474;2023-02-16T03:38:54;78.13;;;45.43;;
13897;SDS011;7019;50.766;4.474;2023-02-16T03:41:22;75.73;;;44.10;;
13897;SDS011;7019;50.766;4.474;2023-02-16T03:43:50;74.13;;;42.97;;
13897;SDS011;7019;50.766;4.474;2023-02-16T03:46:17;71.53;;;42.80;;
13897;SDS011;7019;50.766;4.474;2023-02-16T03:48:44;71.70;;;41.13;;
13897;SDS011;7019;50.766;4.474;2023-02-16T03:51:13;74.03;;;43.67;;
13897;SDS011;7019;50.766;4.474;2023-02-16T03:53:40;67.97;;;41.97;;
13897;SDS011;7019;50.766;4.474;2023-02-16T03:56:07;73.23;;;43.73;;
13897;SDS011;7019;50.766;4.474;2023-02-16T03:58:34;74.03;;;41.17;;
13897;SDS011;7019;50.766;4.474;2023-02-16T04:01:01;79.47;;;43.23;;
13897;SDS011;7019;50.766;4.474;2023-02-16T04:03:29;73.80;;;41.93;;
13897;SDS011;7019;50.766;4.474;2023-02-16T04:05:56;67.77;;;39.80;;
13897;SDS011;7019;50.766;4.474;2023-02-16T04:08:25;71.33;;;42.97;;
13897;SDS011;7019;50.766;4.474;2023-02-16T04:10:52;72.93;;;43.50;;
13897;SDS011;7019;50.766;4.474;2023-02-16T04:13:21;70.73;;;40.00;;
13897;SDS011;7019;50.766;4.474;2023-02-16T04:15:47;66.57;;;41.63;;
13897;SDS011;7019;50.766;4.474;2023-02-16T04:18:15;67.67;;;39.33;;
13897;SDS011;7019;50.766;4.474;2023-02-16T04:20:42;68.77;;;40.03;;
13897;SDS011;7019;50.766;4.474;2023-02-16T04:23:09;70.10;;;41.97;;
13897;SDS011;7019;50.766;4.474;2023-02-16T04:25:37;62.27;;;38.43;;
13897;SDS011;7019;50.766;4.474;2023-02-16T04:28:04;63.77;;;38.53;;
13897;SDS011;7019;50.766;4.474;2023-02-16T04:30:32;68.20;;;40.03;;
13897;SDS011;7019;50.766;4.474;2023-02-16T04:32:59;63.47;;;39.93;;
13897;SDS011;7019;50.766;4.474;2023-02-16T04:35:26;61.60;;;38.17;;
13897;SDS011;7019;50.766;4.474;2023-02-16T04:37:53;57.97;;;36.87;;
13897;SDS011;7019;50.766;4.474;2023-02-16T04:40:20;57.57;;;36.70;;
13897;SDS011;7019;50.766;4.474;2023-02-16T04:42:48;62.53;;;38.23;;
13897;SDS011;7019;50.766;4.474;2023-02-16T04:45:15;57.47;;;37.13;;
13897;SDS011;7019;50.766;4.474;2023-02-16T04:47:43;59.53;;;38.43;;
13897;SDS011;7019;50.766;4.474;2023-02-16T04:50:10;57.50;;;37.60;;
13897;SDS011;7019;50.766;4.474;2023-02-16T04:52:37;64.10;;;37.47;;
13897;SDS011;7019;50.766;4.474;2023-02-16T04:55:05;58.90;;;37.57;;
13897;SDS011;7019;50.766;4.474;2023-02-16T04:57:34;56.23;;;36.83;;
13897;SDS011;7019;50.766;4.474;2023-02-16T05:00:03;54.37;;;35.23;;
13897;SDS011;7019;50.766;4.474;2023-02-16T05:02:32;51.27;;;34.10;;
13897;SDS011;7019;50.766;4.474;2023-02-16T05:04:59;55.67;;;35.17;;
13897;SDS011;7019;50.766;4.474;2023-02-16T05:07:26;58.50;;;35.07;;
13897;SDS011;7019;50.766;4.474;2023-02-16T05:09:53;56.07;;;35.53;;
13897;SDS011;7019;50.766;4.474;2023-02-16T05:12:20;51.43;;;36.27;;
13897;SDS011;7019;50.766;4.474;2023-02-16T05:15:06;54.00;;;33.73;;
13897;SDS011;7019;50.766;4.474;2023-02-16T05:17:33;53.60;;;33.70;;
13897;SDS011;7019;50.766;4.474;2023-02-16T05:20:00;52.17;;;34.33;;
13897;SDS011;7019;50.766;4.474;2023-02-16T05:22:29;53.53;;;35.30;;
13897;SDS011;7019;50.766;4.474;2023-02-16T05:24:57;55.83;;;37.03;;
13897;SDS011;7019;50.766;4.474;2023-02-16T05:27:25;52.80;;;35.13;;
13897;SDS011;7019;50.766;4.474;2023-02-16T05:29:54;50.33;;;34.17;;
13897;SDS011;7019;50.766;4.474;2023-02-16T05:32:23;56.07;;;34.50;;
13897;SDS011;7019;50.766;4.474;2023-02-16T05:34:51;58.37;;;34.77;;
13897;SDS011;7019;50.766;4.474;2023-02-16T05:37:18;55.43;;;35.73;;
13897;SDS011;7019;50.766;4.474;2023-02-16T05:39:45;51.90;;;35.07;;
13897;SDS011;7019;50.766;4.474;2023-02-16T05:42:12;52.47;;;33.83;;
13897;SDS011;7019;50.766;4.474;2023-02-16T05:44:39;53.50;;;35.43;;
13897;SDS011;7019;50.766;4.474;2023-02-16T05:47:06;52.57;;;34.43;;
13897;SDS011;7019;50.766;4.474;2023-02-16T05:49:35;53.07;;;35.23;;
13897;SDS011;7019;50.766;4.474;2023-02-16T05:52:02;55.20;;;34.57;;
13897;SDS011;7019;50.766;4.474;2023-02-16T05:54:29;53.00;;;34.30;;
13897;SDS011;7019;50.766;4.474;2023-02-16T05:56:56;53.80;;;35.07;;
13897;SDS011;7019;50.766;4.474;2023-02-16T05:59:23;59.23;;;34.67;;
13897;SDS011;7019;50.766;4.474;2023-02-16T06:01:50;55.43;;;36.13;;
13897;SDS011;7019;50.766;4.474;2023-02-16T06:04:18;49.13;;;33.97;;
13897;SDS011;7019;50.766;4.474;2023-02-16T06:06:47;53.10;;;35.13;;
13897;SDS011;7019;50.766;4.474;2023-02-16T06:09:14;53.73;;;35.50;;
13897;SDS011;7019;50.766;4.474;2023-02-16T06:11:41;49.03;;;34.13;;
13897;SDS011;7019;50.766;4.474;2023-02-16T06:14:10;53.57;;;33.53;;
13897;SDS011;7019;50.766;4.474;2023-02-16T06:16:39;46.83;;;33.53;;
13897;SDS011;7019;50.766;4.474;2023-02-16T06:19:08;53.30;;;34.17;;
13897;SDS011;7019;50.766;4.474;2023-02-16T06:21:36;49.77;;;32.07;;
13897;SDS011;7019;50.766;4.474;2023-02-16T06:24:06;52.63;;;34.07;;
13897;SDS011;7019;50.766;4.474;2023-02-16T06:26:34;50.67;;;34.23;;
13897;SDS011;7019;50.766;4.474;2023-02-16T06:29:01;49.77;;;31.43;;
13897;SDS011;7019;50.766;4.474;2023-02-16T06:31:29;48.30;;;31.33;;
13897;SDS011;7019;50.766;4.474;2023-02-16T06:33:56;49.73;;;33.53;;
13897;SDS011;7019;50.766;4.474;2023-02-16T06:36:23;46.00;;;32.37;;
13897;SDS011;7019;50.766;4.474;2023-02-16T06:38:51;51.47;;;31.33;;
13897;SDS011;7019;50.766;4.474;2023-02-16T06:41:19;49.90;;;31.70;;
13897;SDS011;7019;50.766;4.474;2023-02-16T06:43:57;49.03;;;31.73;;
13897;SDS011;7019;50.766;4.474;2023-02-16T06:46:24;51.03;;;33.90;;
13897;SDS011;7019;50.766;4.474;2023-02-16T06:48:51;51.60;;;33.07;;
13897;SDS011;7019;50.766;4.474;2023-02-16T06:51:19;48.93;;;32.47;;
13897;SDS011;7019;50.766;4.474;2023-02-16T06:53:46;44.43;;;29.47;;
13897;SDS011;7019;50.766;4.474;2023-02-16T06:56:13;47.90;;;32.23;;
13897;SDS011;7019;50.766;4.474;2023-02-16T06:58:42;46.63;;;31.63;;
13897;SDS011;7019;50.766;4.474;2023-02-16T07:01:09;42.77;;;30.83;;
13897;SDS011;7019;50.766;4.474;2023-02-16T07:03:36;45.80;;;30.87;;
13897;SDS011;7019;50.766;4.474;2023-02-16T07:06:04;45.47;;;30.80;;
13897;SDS011;7019;50.766;4.474;2023-02-16T07:08:32;53.47;;;31.90;;
13897;SDS011;7019;50.766;4.474;2023-02-16T07:10:59;69.77;;;39.00;;
13897;SDS011;7019;50.766;4.474;2023-02-16T07:13:26;60.63;;;33.03;;
13897;SDS011;7019;50.766;4.474;2023-02-16T07:15:54;47.60;;;30.80;;
13897;SDS011;7019;50.766;4.474;2023-02-16T07:18:21;51.50;;;33.37;;
13897;SDS011;7019;50.766;4.474;2023-02-16T07:20:49;49.83;;;32.70;;
13897;SDS011;7019;50.766;4.474;2023-02-16T07:23:16;50.90;;;34.23;;
13897;SDS011;7019;50.766;4.474;2023-02-16T07:25:43;60.67;;;36.63;;
13897;SDS011;7019;50.766;4.474;2023-02-16T07:28:10;55.83;;;33.03;;
13897;SDS011;7019;50.766;4.474;2023-02-16T07:30:37;47.70;;;31.40;;
13897;SDS011;7019;50.766;4.474;2023-02-16T07:33:06;48.73;;;31.13;;
13897;SDS011;7019;50.766;4.474;2023-02-16T07:35:33;47.33;;;32.30;;
13897;SDS011;7019;50.766;4.474;2023-02-16T07:38:01;58.90;;;36.27;;
13897;SDS011;7019;50.766;4.474;2023-02-16T07:40:29;53.00;;;32.17;;
13897;SDS011;7019;50.766;4.474;2023-02-16T07:42:57;47.57;;;31.00;;
13897;SDS011;7019;50.766;4.474;2023-02-16T07:45:25;49.83;;;30.87;;
13897;SDS011;7019;50.766;4.474;2023-02-16T07:47:53;47.33;;;32.17;;
13897;SDS011;7019;50.766;4.474;2023-02-16T07:50:21;47.87;;;30.87;;
13897;SDS011;7019;50.766;4.474;2023-02-16T07:52:48;50.30;;;32.20;;
13897;SDS011;7019;50.766;4.474;2023-02-16T07:55:15;44.93;;;30.10;;
13897;SDS011;7019;50.766;4.474;2023-02-16T07:57:43;44.50;;;30.17;;
13897;SDS011;7019;50.766;4.474;2023-02-16T08:00:13;42.93;;;29.13;;
13897;SDS011;7019;50.766;4.474;2023-02-16T08:02:41;47.73;;;30.60;;
13897;SDS011;7019;50.766;4.474;2023-02-16T08:05:08;41.77;;;30.73;;
13897;SDS011;7019;50.766;4.474;2023-02-16T08:07:36;43.57;;;29.47;;
13897;SDS011;7019;50.766;4.474;2023-02-16T08:10:06;42.73;;;29.37;;
13897;SDS011;7019;50.766;4.474;2023-02-16T08:12:34;38.50;;;28.33;;
13897;SDS011;7019;50.766;4.474;2023-02-16T08:15:02;41.57;;;28.43;;
13897;SDS011;7019;50.766;4.474;2023-02-16T08:17:30;44.77;;;27.77;;
13897;SDS011;7019;50.766;4.474;2023-02-16T08:19:59;43.60;;;27.07;;
13897;SDS011;7019;50.766;4.474;2023-02-16T08:22:27;36.83;;;26.40;;
13897;SDS011;7019;50.766;4.474;2023-02-16T08:24:56;38.27;;;26.60;;
13897;SDS011;7019;50.766;4.474;2023-02-16T08:27:24;39.90;;;26.67;;
13897;SDS011;7019;50.766;4.474;2023-02-16T08:29:51;36.47;;;27.83;;
13897;SDS011;7019;50.766;4.474;2023-02-16T08:32:19;41.13;;;28.07;;
13897;SDS011;7019;50.766;4.474;2023-02-16T08:34:46;33.63;;;25.57;;
13897;SDS011;7019;50.766;4.474;2023-02-16T08:37:13;37.63;;;26.07;;
13897;SDS011;7019;50.766;4.474;2023-02-16T08:39:40;38.30;;;26.83;;
13897;SDS011;7019;50.766;4.474;2023-02-16T08:42:10;41.97;;;27.40;;
13897;SDS011;7019;50.766;4.474;2023-02-16T08:44:38;35.93;;;27.33;;
13897;SDS011;7019;50.766;4.474;2023-02-16T08:47:06;39.03;;;26.30;;
13897;SDS011;7019;50.766;4.474;2023-02-16T08:49:35;35.13;;;25.13;;
13897;SDS011;7019;50.766;4.474;2023-02-16T08:52:03;34.23;;;26.13;;
13897;SDS011;7019;50.766;4.474;2023-02-16T08:54:30;35.47;;;24.00;;
13897;SDS011;7019;50.766;4.474;2023-02-16T08:56:58;35.23;;;25.27;;
13897;SDS011;7019;50.766;4.474;2023-02-16T08:59:28;31.57;;;24.87;;
13897;SDS011;7019;50.766;4.474;2023-02-16T09:01:55;35.60;;;26.27;;
13897;SDS011;7019;50.766;4.474;2023-02-16T09:04:23;38.57;;;25.07;;
13897;SDS011;7019;50.766;4.474;2023-02-16T09:06:53;35.43;;;25.63;;
13897;SDS011;7019;50.766;4.474;2023-02-16T09:09:22;33.27;;;25.63;;
13897;SDS011;7019;50.766;4.474;2023-02-16T09:11:50;38.03;;;25.30;;
13897;SDS011;7019;50.766;4.474;2023-02-16T09:14:18;36.80;;;27.50;;
13897;SDS011;7019;50.766;4.474;2023-02-16T09:16:47;32.13;;;25.93;;
13897;SDS011;7019;50.766;4.474;2023-02-16T09:19:15;40.27;;;28.60;;
13897;SDS011;7019;50.766;4.474;2023-02-16T09:21:43;37.90;;;27.50;;
13897;SDS011;7019;50.766;4.474;2023-02-16T09:24:12;35.83;;;27.33;;
13897;SDS011;7019;50.766;4.474;2023-02-16T09:26:40;41.57;;;29.60;;
13897;SDS011;7019;50.766;4.474;2023-02-16T09:29:08;38.07;;;28.10;;
13897;SDS011;7019;50.766;4.474;2023-02-16T09:31:37;43.97;;;28.57;;
13897;SDS011;7019;50.766;4.474;2023-02-16T09:34:15;40.33;;;29.63;;
13897;SDS011;7019;50.766;4.474;2023-02-16T09:36:43;45.10;;;28.83;;
13897;SDS011;7019;50.766;4.474;2023-02-16T09:39:11;36.83;;;27.70;;
13897;SDS011;7019;50.766;4.474;2023-02-16T09:41:46;43.83;;;28.40;;
13897;SDS011;7019;50.766;4.474;2023-02-16T09:44:29;36.83;;;27.80;;
13897;SDS011;7019;50.766;4.474;2023-02-16T09:47:05;36.83;;;28.37;;
13897;SDS011;7019;50.766;4.474;2023-02-16T09:49:39;35.00;;;26.73;;
13897;SDS011;7019;50.766;4.474;2023-02-16T09:52:10;37.23;;;27.97;;
13897;SDS011;7019;50.766;4.474;2023-02-16T09:54:45;34.37;;;26.57;;
13897;SDS011;7019;50.766;4.474;2023-02-16T09:57:17;38.10;;;28.03;;
13897;SDS011;7019;50.766;4.474;2023-02-16T09:59:50;33.33;;;24.77;;
13897;SDS011;7019;50.766;4.474;2023-02-16T10:02:28;34.77;;;25.93;;
13897;SDS011;7019;50.766;4.474;2023-02-16T10:05:12;34.17;;;26.10;;
13897;SDS011;7019;50.766;4.474;2023-02-16T10:07:47;35.60;;;25.97;;
13897;SDS011;7019;50.766;4.474;2023-02-16T10:10:38;34.53;;;25.50;;
13897;SDS011;7019;50.766;4.474;2023-02-16T10:13:12;35.33;;;25.53;;
13897;SDS011;7019;50.766;4.474;2023-02-16T10:15:45;36.43;;;26.33;;
13897;SDS011;7019;50.766;4.474;2023-02-16T10:18:16;33.03;;;25.60;;
13897;SDS011;7019;50.766;4.474;2023-02-16T10:20:52;36.47;;;26.13;;
13897;SDS011;7019;50.766;4.474;2023-02-16T10:23:31;36.83;;;26.17;;
13897;SDS011;7019;50.766;4.474;2023-02-16T10:26:11;34.47;;;24.03;;
13897;SDS011;7019;50.766;4.474;2023-02-16T10:28:44;34.43;;;25.33;;
13897;SDS011;7019;50.766;4.474;2023-02-16T10:31:14;30.47;;;24.73;;
13897;SDS011;7019;50.766;4.474;2023-02-16T10:33:55;32.40;;;25.73;;
13897;SDS011;7019;50.766;4.474;2023-02-16T10:36:38;34.43;;;25.00;;
13897;SDS011;7019;50.766;4.474;2023-02-16T10:39:20;35.03;;;25.10;;
13897;SDS011;7019;50.766;4.474;2023-02-16T10:41:54;36.87;;;23.90;;
13897;SDS011;7019;50.766;4.474;2023-02-16T10:44:29;32.57;;;23.70;;
13897;SDS011;7019;50.766;4.474;2023-02-16T10:47:00;34.67;;;24.17;;
13897;SDS011;7019;50.766;4.474;2023-02-16T10:49:30;28.13;;;22.87;;
13897;SDS011;7019;50.766;4.474;2023-02-16T10:52:02;25.93;;;21.77;;
13897;SDS011;7019;50.766;4.474;2023-02-16T10:54:30;29.67;;;23.57;;
13897;SDS011;7019;50.766;4.474;2023-02-16T10:56:59;31.40;;;21.57;;
13897;SDS011;7019;50.766;4.474;2023-02-16T10:59:29;28.23;;;23.37;;
13897;SDS011;7019;50.766;4.474;2023-02-16T11:02:02;29.90;;;23.13;;
13897;SDS011;7019;50.766;4.474;2023-02-16T11:04:43;29.97;;;23.70;;
13897;SDS011;7019;50.766;4.474;2023-02-16T11:07:14;33.77;;;24.20;;
13897;SDS011;7019;50.766;4.474;2023-02-16T11:09:43;31.10;;;22.70;;
13897;SDS011;7019;50.766;4.474;2023-02-16T11:12:12;39.93;;;22.40;;
13897;SDS011;7019;50.766;4.474;2023-02-16T11:14:46;30.27;;;22.70;;
13897;SDS011;7019;50.766;4.474;2023-02-16T11:17:16;29.23;;;21.77;;
13897;SDS011;7019;50.766;4.474;2023-02-16T11:19:49;29.07;;;21.80;;
13897;SDS011;7019;50.766;4.474;2023-02-16T11:22:28;32.67;;;23.10;;
13897;SDS011;7019;50.766;4.474;2023-02-16T11:25:12;27.03;;;21.10;;
13897;SDS011;7019;50.766;4.474;2023-02-16T11:27:51;30.00;;;22.23;;
13897;SDS011;7019;50.766;4.474;2023-02-16T11:30:24;30.27;;;21.47;;
13897;SDS011;7019;50.766;4.474;2023-02-16T11:32:57;30.83;;;21.87;;
13897;SDS011;7019;50.766;4.474;2023-02-16T11:35:30;28.67;;;21.73;;
13897;SDS011;7019;50.766;4.474;2023-02-16T11:38:20;32.60;;;21.60;;
13897;SDS011;7019;50.766;4.474;2023-02-16T11:40:52;26.53;;;20.33;;
13897;SDS011;7019;50.766;4.474;2023-02-16T11:43:19;31.37;;;22.60;;
13897;SDS011;7019;50.766;4.474;2023-02-16T11:45:55;29.77;;;21.47;;
13897;SDS011;7019;50.766;4.474;2023-02-16T11:48:24;24.53;;;21.87;;
13897;SDS011;7019;50.766;4.474;2023-02-16T11:50:54;27.90;;;23.20;;
13897;SDS011;7019;50.766;4.474;2023-02-16T11:53:25;26.27;;;21.37;;
13897;SDS011;7019;50.766;4.474;2023-02-16T11:56:09;28.23;;;21.93;;
13897;SDS011;7019;50.766;4.474;2023-02-16T11:58:38;28.87;;;21.50;;
13897;SDS011;7019;50.766;4.474;2023-02-16T12:01:08;27.90;;;20.87;;
13897;SDS011;7019;50.766;4.474;2023-02-16T12:03:58;27.27;;;22.73;;
13897;SDS011;7019;50.766;4.474;2023-02-16T12:06:39;28.43;;;22.03;;
13897;SDS011;7019;50.766;4.474;2023-02-16T12:09:19;27.63;;;20.77;;
13897;SDS011;7019;50.766;4.474;2023-02-16T12:11:59;26.87;;;19.20;;
13897;SDS011;7019;50.766;4.474;2023-02-16T12:14:44;28.27;;;20.73;;
13897;SDS011;7019;50.766;4.474;2023-02-16T12:17:24;26.70;;;19.57;;
13897;SDS011;7019;50.766;4.474;2023-02-16T12:20:12;23.67;;;19.70;;
13897;SDS011;7019;50.766;4.474;2023-02-16T12:22:53;23.67;;;19.10;;
13897;SDS011;7019;50.766;4.474;2023-02-16T12:25:29;29.03;;;19.63;;
13897;SDS011;7019;50.766;4.474;2023-02-16T12:28:05;24.53;;;19.17;;
13897;SDS011;7019;50.766;4.474;2023-02-16T12:30:44;24.73;;;19.50;;
13897;SDS011;7019;50.766;4.474;2023-02-16T12:33:24;25.57;;;19.57;;
13897;SDS011;7019;50.766;4.474;2023-02-16T12:36:01;26.10;;;19.83;;
13897;SDS011;7019;50.766;4.474;2023-02-16T12:38:47;25.43;;;19.20;;
13897;SDS011;7019;50.766;4.474;2023-02-16T12:41:22;28.17;;;20.20;;
13897;SDS011;7019;50.766;4.474;2023-02-16T12:44:01;24.80;;;19.33;;
13897;SDS011;7019;50.766;4.474;2023-02-16T12:46:34;23.00;;;18.93;;
13897;SDS011;7019;50.766;4.474;2023-02-16T12:49:05;23.60;;;19.77;;
13897;SDS011;7019;50.766;4.474;2023-02-16T12:51:42;28.70;;;20.23;;
13897;SDS011;7019;50.766;4.474;2023-02-16T12:54:15;23.87;;;19.50;;
13897;SDS011;7019;50.766;4.474;2023-02-16T12:56:49;26.67;;;20.63;;
13897;SDS011;7019;50.766;4.474;2023-02-16T12:59:21;28.53;;;19.63;;
13897;SDS011;7019;50.766;4.474;2023-02-16T13:01:54;29.03;;;21.23;;
13897;SDS011;7019;50.766;4.474;2023-02-16T13:04:25;25.13;;;20.30;;
13897;SDS011;7019;50.766;4.474;2023-02-16T13:07:04;24.80;;;20.03;;
13897;SDS011;7019;50.766;4.474;2023-02-16T13:09:43;24.97;;;19.30;;
13897;SDS011;7019;50.766;4.474;2023-02-16T13:12:20;27.47;;;19.27;;
13897;SDS011;7019;50.766;4.474;2023-02-16T13:14:55;23.90;;;19.37;;
13897;SDS011;7019;50.766;4.474;2023-02-16T13:17:31;26.37;;;19.33;;
13897;SDS011;7019;50.766;4.474;2023-02-16T13:20:00;29.37;;;20.73;;
13897;SDS011;7019;50.766;4.474;2023-02-16T13:22:35;23.93;;;18.93;;
13897;SDS011;7019;50.766;4.474;2023-02-16T13:25:19;23.47;;;17.87;;
13897;SDS011;7019;50.766;4.474;2023-02-16T13:28:00;28.83;;;19.23;;
13897;SDS011;7019;50.766;4.474;2023-02-16T13:30:37;31.87;;;19.47;;
13897;SDS011;7019;50.766;4.474;2023-02-16T13:33:20;26.17;;;18.87;;
13897;SDS011;7019;50.766;4.474;2023-02-16T13:36:09;27.10;;;19.27;;
13897;SDS011;7019;50.766;4.474;2023-02-16T13:42:35;23.70;;;17.50;;
13897;SDS011;7019;50.766;4.474;2023-02-16T13:45:25;19.93;;;16.27;;
13897;SDS011;7019;50.766;4.474;2023-02-16T13:47:55;23.13;;;17.37;;
13897;SDS011;7019;50.766;4.474;2023-02-16T13:50:25;26.43;;;17.07;;
13897;SDS011;7019;50.766;4.474;2023-02-16T13:52:56;22.10;;;16.13;;
13897;SDS011;7019;50.766;4.474;2023-02-16T13:55:42;22.33;;;16.97;;
13897;SDS011;7019;50.766;4.474;2023-02-16T13:58:26;24.83;;;16.50;;
13897;SDS011;7019;50.766;4.474;2023-02-16T14:00:59;21.70;;;16.07;;
13897;SDS011;7019;50.766;4.474;2023-02-16T14:04:10;24.60;;;16.90;;
13897;SDS011;7019;50.766;4.474;2023-02-16T14:06:39;26.03;;;16.43;;
13897;SDS011;7019;50.766;4.474;2023-02-16T14:14:44;20.73;;;15.43;;
13897;SDS011;7019;50.766;4.474;2023-02-16T14:17:32;19.27;;;15.00;;
13897;SDS011;7019;50.766;4.474;2023-02-16T14:20:01;18.20;;;15.57;;
13897;SDS011;7019;50.766;4.474;2023-02-16T14:22:32;20.03;;;16.03;;
13897;SDS011;7019;50.766;4.474;2023-02-16T14:25:05;20.47;;;14.13;;
13897;SDS011;7019;50.766;4.474;2023-02-16T14:28:00;24.87;;;15.20;;
13897;SDS011;7019;50.766;4.474;2023-02-16T14:30:29;19.17;;;13.77;;
13897;SDS011;7019;50.766;4.474;2023-02-16T14:33:02;20.50;;;14.97;;
13897;SDS011;7019;50.766;4.474;2023-02-16T14:35:42;20.37;;;13.93;;
13897;SDS011;7019;50.766;4.474;2023-02-16T14:38:15;23.03;;;14.23;;
13897;SDS011;7019;50.766;4.474;2023-02-16T14:40:50;18.60;;;14.17;;
13897;SDS011;7019;50.766;4.474;2023-02-16T14:43:23;19.07;;;13.17;;
13897;SDS011;7019;50.766;4.474;2023-02-16T14:52:16;18.43;;;13.57;;
13897;SDS011;7019;50.766;4.474;2023-02-16T14:58:21;20.73;;;14.40;;
13897;SDS011;7019;50.766;4.474;2023-02-16T15:00:54;18.90;;;13.57;;
13897;SDS011;7019;50.766;4.474;2023-02-16T15:03:37;19.63;;;14.83;;
13897;SDS011;7019;50.766;4.474;2023-02-16T15:06:06;22.77;;;14.97;;
13897;SDS011;7019;50.766;4.474;2023-02-16T15:08:42;19.07;;;14.40;;
13897;SDS011;7019;50.766;4.474;2023-02-16T15:11:14;19.57;;;14.40;;
13897;SDS011;7019;50.766;4.474;2023-02-16T15:13:47;21.20;;;14.13;;
13897;SDS011;7019;50.766;4.474;2023-02-16T15:16:17;21.77;;;13.57;;
13897;SDS011;7019;50.766;4.474;2023-02-16T15:18:47;19.60;;;15.13;;
13897;SDS011;7019;50.766;4.474;2023-02-16T15:21:17;21.67;;;14.87;;
13897;SDS011;7019;50.766;4.474;2023-02-16T15:23:51;19.13;;;13.83;;
13897;SDS011;7019;50.766;4.474;2023-02-16T15:26:20;19.23;;;14.37;;
13897;SDS011;7019;50.766;4.474;2023-02-16T15:28:52;20.00;;;14.03;;